Terminal Aerodrome Forecast
Issued by NWS

Home | Current Version | Previous Version | Text Only | Print | Product List | Glossary On
Versions: 1 2 3 4 5 6 7 8 9 10 11 12 13 14 15 16 17 18 19 20 21 22 23
000
FTUS45 KBYZ 280527
TAFLVM
TAF
KLVM 280527Z 2806/2906 28011KT P6SM VCSH SCT030 OVC080
     FM281100 32010KT 5SM -RASN BR FEW010 OVC020
     FM281400 09010KT 2SM -SNRA SCT005 OVC009
     FM281900 08009KT P6SM -SHRA OVC015
     FM282300 VRB06KT P6SM VCSH BKN035=

USA.gov is the U.S. government's official web portal to all federal, state and local government web resources and services.